createdAt,value
2022-12-08T00:00:53.551Z,-1.33
2022-12-08T00:03:21.313Z,-1.28
2022-12-08T00:06:07.625Z,-1.24
2022-12-08T00:08:53.592Z,-1.20
2022-12-08T00:11:21.350Z,-1.21
2022-12-08T00:13:50.278Z,-1.21
2022-12-08T00:16:17.889Z,-1.19
2022-12-08T00:18:45.643Z,-1.19
2022-12-08T00:21:13.210Z,-1.20
2022-12-08T00:23:40.874Z,-1.19
2022-12-08T00:26:08.622Z,-1.21
2022-12-08T00:28:36.478Z,-1.22
2022-12-08T00:31:10.210Z,-1.21
2022-12-08T00:33:38.162Z,-1.24
2022-12-08T00:36:08.961Z,-1.23
2022-12-08T00:38:36.904Z,-1.28
2022-12-08T00:41:05.190Z,-1.26
2022-12-08T00:43:32.747Z,-1.26
2022-12-08T00:46:00.379Z,-1.21
2022-12-08T00:48:29.430Z,-1.18
2022-12-08T00:50:57.034Z,-1.23
2022-12-08T00:53:24.666Z,-1.25
2022-12-08T00:55:52.250Z,-1.27
2022-12-08T00:58:19.847Z,-1.26
2022-12-08T01:00:47.516Z,-1.21
2022-12-08T01:03:15.198Z,-1.24
2022-12-08T01:05:44.511Z,-1.28
2022-12-08T01:08:12.146Z,-1.28
2022-12-08T01:10:39.773Z,-1.34
2022-12-08T01:13:07.358Z,-1.34
2022-12-08T01:15:35.037Z,-1.27
2022-12-08T01:18:03.344Z,-1.30
2022-12-08T01:20:30.940Z,-1.29
2022-12-08T01:22:59.857Z,-1.28
2022-12-08T01:25:27.488Z,-1.21
2022-12-08T01:27:55.882Z,-1.19
2022-12-08T01:30:23.482Z,-1.22
2022-12-08T01:32:51.072Z,-1.24
2022-12-08T01:35:19.066Z,-1.23
2022-12-08T01:37:46.632Z,-1.24
2022-12-08T01:40:15.646Z,-1.26
2022-12-08T01:42:43.226Z,-1.23
2022-12-08T01:45:15.775Z,-1.19
2022-12-08T01:47:45.204Z,-1.21
2022-12-08T01:50:14.955Z,-1.22
2022-12-08T01:52:45.461Z,-1.22
2022-12-08T01:55:17.937Z,-1.18
2022-12-08T01:57:48.515Z,-1.17
2022-12-08T02:00:18.644Z,-1.20
2022-12-08T02:02:54.958Z,-1.22
2022-12-08T02:05:24.644Z,-1.23
2022-12-08T02:07:53.438Z,-1.21
2022-12-08T02:10:26.717Z,-1.20
2022-12-08T02:12:55.954Z,-1.25
2022-12-08T02:15:27.439Z,-1.21
2022-12-08T02:18:02.367Z,-1.20
2022-12-08T02:20:46.874Z,-1.17
2022-12-08T02:23:23.555Z,-1.19
2022-12-08T02:26:07.845Z,-1.22
2022-12-08T02:29:14.714Z,-1.26
2022-12-08T02:31:52.981Z,-1.24
2022-12-08T02:34:28.430Z,-1.29
2022-12-08T02:37:01.297Z,-1.31
2022-12-08T02:39:36.352Z,-1.32
2022-12-08T02:42:10.978Z,-1.32
2022-12-08T02:44:40.863Z,-1.30
2022-12-08T02:47:11.105Z,-1.27
2022-12-08T02:49:40.672Z,-1.33
2022-12-08T02:52:29.300Z,-1.35
2022-12-08T02:54:58.950Z,-1.38
2022-12-08T02:57:32.959Z,-1.39
2022-12-08T03:00:08.891Z,-1.41
2022-12-08T03:02:50.584Z,-1.44
2022-12-08T03:05:28.925Z,-1.49
2022-12-08T03:08:01.866Z,-1.52
2022-12-08T03:10:34.044Z,-1.53
2022-12-08T03:13:05.787Z,-1.56
2022-12-08T03:15:33.996Z,-1.56
2022-12-08T03:18:01.818Z,-1.58
2022-12-08T03:20:32.397Z,-1.61
2022-12-08T03:23:01.530Z,-1.57
2022-12-08T03:25:32.054Z,-1.57
2022-12-08T03:28:00.670Z,-1.55
2022-12-08T03:30:28.880Z,-1.55
2022-12-08T03:33:00.685Z,-1.53
2022-12-08T03:35:32.685Z,-1.50
2022-12-08T03:38:04.883Z,-1.52
2022-12-08T03:40:32.562Z,-1.52
2022-12-08T03:43:00.183Z,-1.48
2022-12-08T03:45:27.803Z,-1.51
2022-12-08T03:47:55.389Z,-1.44
2022-12-08T03:50:23.085Z,-1.43
2022-12-08T03:52:52.127Z,-1.38
2022-12-08T03:55:21.374Z,-1.31
2022-12-08T03:57:48.954Z,-1.33
2022-12-08T04:00:17.920Z,-1.30
2022-12-08T04:02:45.591Z,-1.27
2022-12-08T04:05:13.198Z,-1.24
2022-12-08T04:07:40.843Z,-1.17
2022-12-08T04:10:11.143Z,-1.13
2022-12-08T04:12:38.780Z,-1.09
2022-12-08T04:15:07.261Z,-1.19
2022-12-08T04:17:34.812Z,-1.27
2022-12-08T04:20:02.859Z,-1.24
2022-12-08T04:22:30.745Z,-1.16
2022-12-08T04:24:58.524Z,-1.04
2022-12-08T04:27:27.525Z,-1.07
2022-12-08T04:29:55.129Z,-1.03
2022-12-08T04:32:23.232Z,-1.03
2022-12-08T04:34:51.482Z,-0.96
2022-12-08T04:37:19.043Z,-1.08
2022-12-08T04:39:46.608Z,-1.17
2022-12-08T04:42:14.225Z,-1.10
2022-12-08T04:44:43.140Z,-0.99
2022-12-08T04:47:10.897Z,-1.05
2022-12-08T04:49:38.519Z,-1.07
2022-12-08T04:52:06.445Z,-0.94
2022-12-08T04:54:34.193Z,-1.05
2022-12-08T04:57:01.761Z,-0.98
2022-12-08T04:59:29.343Z,-0.92
2022-12-08T05:01:58.372Z,-0.84
2022-12-08T05:04:26.326Z,-0.88
2022-12-08T05:06:53.890Z,-0.83
2022-12-08T05:09:21.468Z,-0.92
2022-12-08T05:11:49.429Z,-1.05
2022-12-08T05:14:17.997Z,-1.19
2022-12-08T05:16:46.269Z,-1.31
2022-12-08T05:19:16.079Z,-1.43
2022-12-08T05:21:44.325Z,-1.55
2022-12-08T05:24:11.957Z,-1.68
2022-12-08T05:26:39.569Z,-1.77
2022-12-08T05:29:07.276Z,-1.82
2022-12-08T05:31:35.054Z,-1.87
2022-12-08T05:34:03.559Z,-1.97
2022-12-08T05:36:32.636Z,-1.99
2022-12-08T05:39:00.225Z,-2.00
2022-12-08T05:41:28.479Z,-2.02
2022-12-08T05:43:56.060Z,-2.01
2022-12-08T05:46:23.987Z,-2.07
2022-12-08T05:48:51.729Z,-2.07
2022-12-08T05:51:20.941Z,-2.11
2022-12-08T05:53:50.808Z,-2.15
2022-12-08T05:56:18.482Z,-2.15
2022-12-08T05:58:46.423Z,-2.16
2022-12-08T06:01:20.568Z,-2.21
2022-12-08T06:03:48.191Z,-2.25
2022-12-08T06:06:15.837Z,-2.29
2022-12-08T06:08:43.525Z,-2.34
2022-12-08T06:11:18.839Z,-2.39
2022-12-08T06:13:46.418Z,-2.41
2022-12-08T06:16:14.080Z,-2.49
2022-12-08T06:18:41.736Z,-2.52
2022-12-08T06:21:11.974Z,-2.56
2022-12-08T06:23:39.787Z,-2.55
2022-12-08T06:26:09.725Z,-2.56
2022-12-08T06:28:39.594Z,-2.60
2022-12-08T06:31:09.177Z,-2.65
2022-12-08T06:33:37.416Z,-2.65
2022-12-08T06:36:05.247Z,-2.70
2022-12-08T06:38:32.821Z,-2.78
2022-12-08T06:41:00.979Z,-2.77
2022-12-08T06:43:28.757Z,-2.76
2022-12-08T06:45:57.722Z,-2.77
2022-12-08T06:48:25.290Z,-2.76
2022-12-08T06:50:52.950Z,-2.76
2022-12-08T06:53:21.737Z,-2.74
2022-12-08T06:56:00.525Z,-2.74
2022-12-08T06:58:28.126Z,-2.78
2022-12-08T07:00:57.118Z,-2.74
2022-12-08T07:03:24.717Z,-2.71
2022-12-08T07:06:01.759Z,-2.66
2022-12-08T07:08:31.330Z,-2.65
2022-12-08T07:10:58.965Z,-2.57
2022-12-08T07:13:26.588Z,-2.56
2022-12-08T07:15:54.163Z,-2.52
2022-12-08T07:18:23.185Z,-2.46
2022-12-08T07:20:50.774Z,-2.37
2022-12-08T07:23:18.346Z,-2.29
2022-12-08T07:25:45.948Z,-2.27
2022-12-08T07:28:13.636Z,-2.26
2022-12-08T07:30:41.298Z,-2.29
2022-12-08T07:33:08.985Z,-2.31
2022-12-08T07:35:38.278Z,-2.33
2022-12-08T07:38:05.931Z,-2.24
2022-12-08T07:40:33.500Z,-2.24
2022-12-08T07:43:01.048Z,-2.26
2022-12-08T07:45:31.718Z,-2.30
2022-12-08T07:47:59.729Z,-2.33
2022-12-08T07:50:27.433Z,-2.35
2022-12-08T07:52:56.348Z,-2.33
2022-12-08T07:55:24.005Z,-2.39
2022-12-08T07:57:51.630Z,-2.44
2022-12-08T08:00:20.035Z,-2.42
2022-12-08T08:02:47.709Z,-2.42
2022-12-08T08:05:15.349Z,-2.41
2022-12-08T08:07:43.714Z,-2.42
2022-12-08T08:10:13.565Z,-2.40
2022-12-08T08:12:41.182Z,-2.36
2022-12-08T08:15:09.823Z,-2.23
2022-12-08T08:17:38.582Z,-2.12
2022-12-08T08:20:07.922Z,-1.92
2022-12-08T08:22:36.678Z,-2.02
2022-12-08T08:25:05.612Z,-2.06
2022-12-08T08:27:34.596Z,-2.15
2022-12-08T08:30:03.079Z,-2.14
2022-12-08T08:32:33.920Z,-2.08
2022-12-08T08:35:01.757Z,-1.98
2022-12-08T08:37:29.445Z,-2.06
2022-12-08T08:39:57.549Z,-2.05
2022-12-08T08:42:25.111Z,-1.90
2022-12-08T08:44:54.086Z,-1.99
2022-12-08T08:47:21.658Z,-2.14
2022-12-08T08:49:49.275Z,-2.13
2022-12-08T08:52:16.884Z,-2.08
2022-12-08T08:54:44.485Z,-2.06
2022-12-08T08:57:12.083Z,-2.19
2022-12-08T08:59:39.768Z,-2.09
2022-12-08T09:02:12.267Z,-2.02
2022-12-08T09:04:39.899Z,-1.93
2022-12-08T09:07:07.586Z,-1.91
2022-12-08T09:09:35.254Z,-1.91
2022-12-08T09:12:02.809Z,-1.92
2022-12-08T09:14:30.452Z,-1.79
2022-12-08T09:16:58.072Z,-1.78
2022-12-08T09:19:27.012Z,-1.79
2022-12-08T09:21:54.645Z,-1.75
2022-12-08T09:24:23.135Z,-1.78
2022-12-08T09:26:51.184Z,-1.76
2022-12-08T09:29:18.768Z,-1.70
2022-12-08T09:31:46.396Z,-1.67
2022-12-08T09:34:14.361Z,-1.58
2022-12-08T09:36:43.876Z,-1.70
2022-12-08T09:39:11.491Z,-1.58
2022-12-08T09:41:48.344Z,-1.50
2022-12-08T09:44:39.177Z,-1.34
2022-12-08T09:47:11.353Z,-1.30
2022-12-08T09:49:40.898Z,-1.15
2022-12-08T09:52:14.643Z,-0.99
2022-12-08T09:54:42.178Z,-0.88
2022-12-08T09:57:16.047Z,-0.81
2022-12-08T09:59:46.499Z,-0.73
2022-12-08T10:02:22.493Z,-0.63
2022-12-08T10:04:50.254Z,-0.53
2022-12-08T10:07:22.354Z,-0.63
2022-12-08T10:09:56.579Z,-0.56
2022-12-08T10:12:28.177Z,-0.64
2022-12-08T10:14:59.689Z,-0.56
2022-12-08T10:17:29.034Z,-0.67
2022-12-08T10:20:00.498Z,-0.58
2022-12-08T10:22:39.849Z,-0.69
2022-12-08T10:25:15.060Z,-0.71
2022-12-08T10:27:42.695Z,-0.72
2022-12-08T10:30:13.015Z,-0.51
2022-12-08T10:32:40.957Z,-0.38
2022-12-08T10:35:11.216Z,-0.33
2022-12-08T10:37:40.860Z,-0.48
2022-12-08T10:40:12.168Z,-0.56
2022-12-08T10:42:42.020Z,-0.50
2022-12-08T10:45:31.154Z,-0.18
2022-12-08T10:48:01.756Z,-0.20
2022-12-08T10:50:32.301Z,-0.02
2022-12-08T10:53:02.550Z,-0.16
2022-12-08T10:55:30.958Z,0.03
2022-12-08T10:57:58.606Z,0.07
2022-12-08T11:00:28.428Z,0.00
2022-12-08T11:03:01.506Z,-0.01
2022-12-08T11:05:34.474Z,0.21
2022-12-08T11:08:04.581Z,0.13
2022-12-08T11:10:35.813Z,0.15
2022-12-08T11:13:05.940Z,0.09
2022-12-08T11:15:37.176Z,0.01
2022-12-08T11:18:11.983Z,-0.01
2022-12-08T11:20:42.194Z,-0.03
2022-12-08T11:23:23.275Z,0.14
2022-12-08T11:25:51.580Z,0.23
2022-12-08T11:28:24.148Z,0.05
2022-12-08T11:30:57.598Z,0.26
2022-12-08T11:33:26.633Z,0.47
2022-12-08T11:35:59.569Z,0.39
2022-12-08T11:38:29.233Z,0.48
2022-12-08T11:40:59.813Z,0.48
2022-12-08T11:43:31.839Z,0.37
2022-12-08T11:46:01.930Z,0.27
2022-12-08T11:48:35.178Z,0.31
2022-12-08T11:51:06.729Z,0.44
2022-12-08T11:53:44.176Z,0.49
2022-12-08T11:56:18.494Z,0.50
2022-12-08T11:58:49.811Z,0.34
2022-12-08T12:01:20.458Z,0.37
2022-12-08T12:03:53.476Z,0.27
2022-12-08T12:06:53.036Z,0.36
2022-12-08T12:09:26.817Z,0.55
2022-12-08T12:12:19.838Z,0.34
2022-12-08T12:15:18.533Z,0.13
2022-12-08T12:17:48.654Z,0.10
2022-12-08T12:20:20.037Z,0.48
2022-12-08T12:22:50.662Z,0.80
2022-12-08T12:25:23.021Z,1.10
2022-12-08T12:27:57.197Z,0.84
2022-12-08T12:30:26.682Z,1.04
2022-12-08T12:32:56.653Z,0.84
2022-12-08T12:35:32.187Z,0.91
2022-12-08T12:38:04.585Z,0.90
2022-12-08T12:40:40.841Z,0.88
2022-12-08T12:43:25.458Z,0.78
2022-12-08T12:46:31.511Z,0.69
2022-12-08T12:49:48.653Z,0.56
2022-12-08T12:52:37.619Z,0.50
2022-12-08T12:55:23.016Z,0.45
2022-12-08T12:57:54.160Z,0.41
2022-12-08T13:00:23.151Z,0.31
2022-12-08T13:02:52.007Z,0.27
2022-12-08T13:05:21.629Z,0.19
2022-12-08T13:07:52.405Z,0.13
2022-12-08T13:10:22.850Z,0.02
2022-12-08T13:13:06.943Z,-0.12
2022-12-08T13:15:37.000Z,-0.16
2022-12-08T13:18:05.355Z,-0.13
2022-12-08T13:20:41.946Z,-0.20
2022-12-08T13:23:26.747Z,-0.33
2022-12-08T13:26:10.697Z,-0.45
2022-12-08T13:29:11.743Z,-0.42
2022-12-08T13:31:48.355Z,-0.45
2022-12-08T13:34:21.347Z,-0.39
2022-12-08T13:37:08.123Z,-0.35
2022-12-08T13:39:43.616Z,-0.42
2022-12-08T13:42:18.322Z,-0.42
2022-12-08T13:45:24.212Z,-0.44
2022-12-08T13:48:05.981Z,-0.39
2022-12-08T13:59:08.796Z,-0.35
2022-12-08T14:01:43.148Z,-0.36
2022-12-08T14:04:47.479Z,-0.48
2022-12-08T14:07:04.062Z,-0.53
2022-12-08T14:09:35.293Z,-0.64
2022-12-08T14:12:04.927Z,-0.71
2022-12-08T14:15:01.242Z,-0.74
2022-12-08T14:17:23.039Z,-0.80
2022-12-08T14:19:57.337Z,-0.82
2022-12-08T14:22:25.358Z,-0.86
2022-12-08T14:24:54.919Z,-0.89
2022-12-08T14:27:24.694Z,-0.93
2022-12-08T14:29:53.322Z,-1.02
2022-12-08T14:32:28.218Z,-1.07
2022-12-08T14:34:59.537Z,-1.13
2022-12-08T14:37:28.372Z,-1.20
2022-12-08T14:39:59.554Z,-1.24
2022-12-08T14:42:28.506Z,-1.30
2022-12-08T14:44:58.040Z,-1.36
2022-12-08T14:47:30.197Z,-1.40
2022-12-08T14:49:59.111Z,-1.48
2022-12-08T14:52:26.800Z,-1.55
2022-12-08T14:54:54.797Z,-1.56
2022-12-08T14:57:22.697Z,-1.61
2022-12-08T14:59:50.515Z,-1.70
2022-12-08T15:02:27.672Z,-1.78
2022-12-08T15:05:00.000Z,-1.87
2022-12-08T15:07:29.767Z,-1.90
2022-12-08T15:10:21.157Z,-1.90
2022-12-08T15:13:00.753Z,-1.94
2022-12-08T15:15:29.536Z,-2.00
2022-12-08T15:18:04.995Z,-2.07
2022-12-08T15:20:41.544Z,-2.10
2022-12-08T15:23:21.262Z,-2.12
2022-12-08T15:25:49.285Z,-2.11
2022-12-08T15:28:18.508Z,-2.16
2022-12-08T15:30:46.156Z,-2.20
2022-12-08T15:33:14.480Z,-2.24
2022-12-08T15:35:43.542Z,-2.27
2022-12-08T15:38:18.269Z,-2.30
2022-12-08T15:40:45.893Z,-2.32
2022-12-08T15:43:13.782Z,-2.39
2022-12-08T15:45:50.550Z,-2.40
2022-12-08T15:48:26.883Z,-2.43
2022-12-08T15:50:56.402Z,-2.43
2022-12-08T15:53:24.385Z,-2.54
2022-12-08T15:58:56.483Z,-2.43
2022-12-08T16:01:25.542Z,-2.42
2022-12-08T16:07:20.148Z,-2.34
2022-12-08T16:09:33.334Z,-2.30
2022-12-08T16:12:18.983Z,-2.29
2022-12-08T16:15:48.604Z,-2.25
2022-12-08T16:17:35.209Z,-2.34
2022-12-08T16:20:03.633Z,-2.30
2022-12-08T16:25:22.078Z,-2.24
2022-12-08T16:28:02.828Z,-2.18
2022-12-08T16:30:36.536Z,-2.12
2022-12-08T16:33:04.189Z,-2.07
2022-12-08T16:35:32.296Z,-2.09
2022-12-08T16:38:01.246Z,-2.01
2022-12-08T16:40:28.818Z,-1.98
2022-12-08T16:42:55.496Z,-1.91
2022-12-08T16:45:25.198Z,-1.97
2022-12-08T16:47:55.222Z,-2.00
2022-12-08T16:50:25.017Z,-1.95
2022-12-08T16:52:57.959Z,-1.96
2022-12-08T16:55:27.323Z,-1.92
2022-12-08T16:57:55.035Z,-1.89
2022-12-08T17:00:24.659Z,-1.93
2022-12-08T17:02:52.726Z,-1.90
2022-12-08T17:05:22.748Z,-1.87
2022-12-08T17:07:52.312Z,-1.82
2022-12-08T17:10:22.945Z,-1.81
2022-12-08T17:12:52.397Z,-1.79
2022-12-08T17:15:22.451Z,-1.88
2022-12-08T17:17:50.238Z,-1.89
2022-12-08T17:20:20.113Z,-1.88
2022-12-08T17:22:48.040Z,-1.84
2022-12-08T17:25:16.015Z,-1.84
2022-12-08T17:27:43.883Z,-1.80
2022-12-08T17:30:15.714Z,-1.80
2022-12-08T17:32:43.829Z,-1.76
2022-12-08T17:35:11.971Z,-1.69
2022-12-08T17:37:39.540Z,-1.55
2022-12-08T17:40:08.890Z,-1.62
2022-12-08T17:42:37.957Z,-1.63
2022-12-08T17:45:06.620Z,-1.55
2022-12-08T17:47:35.966Z,-1.51
2022-12-08T17:50:04.313Z,-1.60
2022-12-08T17:52:32.328Z,-1.52
2022-12-08T17:54:59.881Z,-1.55
2022-12-08T17:57:27.749Z,-1.52
2022-12-08T17:59:55.410Z,-1.48
2022-12-08T18:02:23.228Z,-1.44
2022-12-08T18:04:52.229Z,-1.47
2022-12-08T18:07:19.839Z,-1.39
2022-12-08T18:09:47.449Z,-1.26
2022-12-08T18:12:19.270Z,-1.31
2022-12-08T18:14:50.345Z,-1.22
2022-12-08T18:17:18.104Z,-1.11
2022-12-08T18:19:45.731Z,-1.05
2022-12-08T18:22:16.011Z,-1.11
2022-12-08T18:24:44.107Z,-1.22
2022-12-08T18:27:11.700Z,-1.30
2022-12-08T18:29:39.267Z,-1.32
2022-12-08T18:32:06.998Z,-1.34
2022-12-08T18:34:34.986Z,-1.61
2022-12-08T18:37:03.117Z,-1.74
2022-12-08T18:39:33.421Z,-1.66
2022-12-08T18:42:02.599Z,-1.56
2022-12-08T18:44:31.066Z,-1.60
2022-12-08T18:46:58.875Z,-1.47
2022-12-08T18:49:26.535Z,-1.56
2022-12-08T18:51:54.116Z,-1.50
2022-12-08T18:54:27.748Z,-1.53
2022-12-08T18:57:06.172Z,-1.49
2022-12-08T18:59:34.262Z,-1.47
2022-12-08T19:02:01.960Z,-1.65
2022-12-08T19:04:31.890Z,-1.62
2022-12-08T19:07:01.218Z,-1.60
2022-12-08T19:09:29.017Z,-1.52
2022-12-08T19:11:57.191Z,-1.37
2022-12-08T19:14:28.539Z,-1.57
2022-12-08T19:16:56.333Z,-1.58
2022-12-08T19:19:23.974Z,-1.50
2022-12-08T19:21:51.639Z,-1.46
2022-12-08T19:24:19.291Z,-1.46
2022-12-08T19:26:47.711Z,-1.42
2022-12-08T19:29:15.328Z,-1.36
2022-12-08T19:31:44.612Z,-1.28
2022-12-08T19:34:14.194Z,-1.24
2022-12-08T19:36:43.213Z,-1.24
2022-12-08T19:39:41.619Z,-1.28
2022-12-08T19:42:32.193Z,-1.36
2022-12-08T19:45:03.522Z,-1.36
2022-12-08T19:47:32.799Z,-1.47
2022-12-08T19:50:14.352Z,-1.56
2022-12-08T19:52:42.056Z,-1.57
2022-12-08T19:55:10.319Z,-1.61
2022-12-08T19:57:38.316Z,-1.54
2022-12-08T20:00:08.031Z,-1.56
2022-12-08T20:02:37.547Z,-1.57
2022-12-08T20:05:05.642Z,-1.63
2022-12-08T20:07:33.509Z,-1.55
2022-12-08T20:10:02.430Z,-1.60
2022-12-08T20:12:30.225Z,-1.65
2022-12-08T20:14:58.194Z,-1.51
2022-12-08T20:17:25.777Z,-1.57
2022-12-08T20:19:54.780Z,-1.61
2022-12-08T20:22:22.367Z,-1.46
2022-12-08T20:24:57.240Z,-1.35
2022-12-08T20:27:29.011Z,-1.36
2022-12-08T20:29:56.933Z,-1.47
2022-12-08T20:32:24.564Z,-1.43
2022-12-08T20:34:52.244Z,-1.44
2022-12-08T20:37:21.206Z,-1.41
2022-12-08T20:39:48.855Z,-1.45
2022-12-08T20:42:16.489Z,-1.32
2022-12-08T20:44:44.443Z,-1.23
2022-12-08T20:47:12.984Z,-1.24
2022-12-08T20:49:40.722Z,-1.49
2022-12-08T20:52:08.592Z,-1.44
2022-12-08T20:54:38.118Z,-1.28
2022-12-08T20:57:06.048Z,-1.21
2022-12-08T20:59:33.949Z,-1.19
2022-12-08T21:02:01.929Z,-1.18
2022-12-08T21:04:29.869Z,-1.21
2022-12-08T21:06:57.633Z,-1.14
2022-12-08T21:09:25.312Z,-1.06
2022-12-08T21:11:54.612Z,-1.08
2022-12-08T21:14:22.495Z,-1.09
2022-12-08T21:16:50.828Z,-1.32
2022-12-08T21:19:19.914Z,-1.36
2022-12-08T21:21:48.235Z,-1.47
2022-12-08T21:24:16.681Z,-1.31
2022-12-08T21:26:44.514Z,-1.40
2022-12-08T21:29:14.034Z,-1.51
2022-12-08T21:31:41.818Z,-1.55
2022-12-08T21:34:11.171Z,-1.60
2022-12-08T21:36:39.128Z,-1.63
2022-12-08T21:39:12.698Z,-1.68
2022-12-08T21:41:57.984Z,-1.69
2022-12-08T21:44:27.146Z,-1.64
2022-12-08T21:46:54.819Z,-1.67
2022-12-08T21:49:22.918Z,-1.56
2022-12-08T21:51:50.726Z,-1.55
2022-12-08T21:54:19.388Z,-1.53
2022-12-08T21:56:47.664Z,-1.51
2022-12-08T21:59:15.499Z,-1.58
2022-12-08T22:01:44.750Z,-1.56
2022-12-08T22:04:13.688Z,-1.67
2022-12-08T22:06:41.278Z,-1.64
2022-12-08T22:09:11.770Z,-1.62
2022-12-08T22:11:39.562Z,-1.63
2022-12-08T22:14:12.466Z,-1.64
2022-12-08T22:16:42.280Z,-1.62
2022-12-08T22:19:12.484Z,-1.52
2022-12-08T22:21:40.410Z,-1.41
2022-12-08T22:24:09.005Z,-1.58
2022-12-08T22:26:36.839Z,-1.57
2022-12-08T22:29:04.839Z,-1.56
2022-12-08T22:31:32.886Z,-1.42
2022-12-08T22:34:01.354Z,-1.33
2022-12-08T22:36:30.600Z,-1.28
2022-12-08T22:38:58.349Z,-1.21
2022-12-08T22:41:26.077Z,-1.19
2022-12-08T22:43:53.851Z,-1.12
2022-12-08T22:46:23.658Z,-1.17
2022-12-08T22:48:51.939Z,-1.22
2022-12-08T22:51:20.437Z,-1.25
2022-12-08T22:53:49.555Z,-1.28
2022-12-08T22:56:18.250Z,-1.33
2022-12-08T22:58:46.444Z,-1.48
2022-12-08T23:01:23.722Z,-1.56
2022-12-08T23:03:51.425Z,-1.57
2022-12-08T23:06:19.778Z,-1.64
2022-12-08T23:08:49.135Z,-1.65
2022-12-08T23:11:17.014Z,-1.67
2022-12-08T23:13:44.995Z,-1.54
2022-12-08T23:16:13.837Z,-1.64
2022-12-08T23:18:43.541Z,-1.49
2022-12-08T23:21:13.830Z,-1.44
2022-12-08T23:23:41.970Z,-1.41
2022-12-08T23:26:17.027Z,-1.38
2022-12-08T23:28:44.853Z,-1.34
2022-12-08T23:31:12.627Z,-1.37
2022-12-08T23:33:40.487Z,-1.44
2022-12-08T23:36:08.663Z,-1.37
2022-12-08T23:38:36.400Z,-1.39
2022-12-08T23:41:05.483Z,-1.42
2022-12-08T23:43:35.226Z,-1.36
2022-12-08T23:46:03.066Z,-1.40
2022-12-08T23:48:34.480Z,-1.38
2022-12-08T23:51:02.304Z,-1.44
2022-12-08T23:53:30.757Z,-1.53
2022-12-08T23:56:02.300Z,-1.44
2022-12-08T23:58:31.250Z,-1.58
